sensor_id;sensor_type;location;lat;lon;timestamp;temperature;humidity
48264;DHT22;34086;51.076;13.722;2022-10-16T00:00:55;14.50;99.90
48264;DHT22;34086;51.076;13.722;2022-10-16T00:01:56;14.40;99.90
48264;DHT22;34086;51.076;13.722;2022-10-16T00:02:57;14.40;99.90
48264;DHT22;34086;51.076;13.722;2022-10-16T00:03:59;14.40;99.90
48264;DHT22;34086;51.076;13.722;2022-10-16T00:05:00;14.40;99.90
48264;DHT22;34086;51.076;13.722;2022-10-16T00:06:01;14.40;99.90
48264;DHT22;34086;51.076;13.722;2022-10-16T00:07:02;14.40;99.90
48264;DHT22;34086;51.076;13.722;2022-10-16T00:08:03;14.30;99.90
48264;DHT22;34086;51.076;13.722;2022-10-16T00:09:04;14.30;99.90
48264;DHT22;34086;51.076;13.722;2022-10-16T00:10:05;14.40;99.90
48264;DHT22;34086;51.076;13.722;2022-10-16T00:11:11;14.30;99.90
48264;DHT22;34086;51.076;13.722;2022-10-16T00:12:12;14.30;99.90
48264;DHT22;34086;51.076;13.722;2022-10-16T00:13:13;14.30;99.90
48264;DHT22;34086;51.076;13.722;2022-10-16T00:14:14;14.30;99.90
48264;DHT22;34086;51.076;13.722;2022-10-16T00:15:15;14.20;99.90
48264;DHT22;34086;51.076;13.722;2022-10-16T00:16:17;14.20;99.90
48264;DHT22;34086;51.076;13.722;2022-10-16T00:17:18;14.20;99.90
48264;DHT22;34086;51.076;13.722;2022-10-16T00:18:18;14.10;99.90
48264;DHT22;34086;51.076;13.722;2022-10-16T00:19:19;14.10;99.90
48264;DHT22;34086;51.076;13.722;2022-10-16T00:20:19;14.10;99.90
48264;DHT22;34086;51.076;13.722;2022-10-16T00:21:23;14.10;99.90
48264;DHT22;34086;51.076;13.722;2022-10-16T00:22:24;14.00;99.90
48264;DHT22;34086;51.076;13.722;2022-10-16T00:23:24;14.00;99.90
48264;DHT22;34086;51.076;13.722;2022-10-16T00:24:25;14.00;99.90
48264;DHT22;34086;51.076;13.722;2022-10-16T00:25:26;14.00;99.90
48264;DHT22;34086;51.076;13.722;2022-10-16T00:26:28;14.00;99.90
48264;DHT22;34086;51.076;13.722;2022-10-16T00:27:29;14.00;99.90
48264;DHT22;34086;51.076;13.722;2022-10-16T00:28:30;14.00;99.90
48264;DHT22;34086;51.076;13.722;2022-10-16T00:29:31;14.00;99.90
48264;DHT22;34086;51.076;13.722;2022-10-16T00:30:31;14.00;99.90
48264;DHT22;34086;51.076;13.722;2022-10-16T00:31:32;14.00;99.90
48264;DHT22;34086;51.076;13.722;2022-10-16T00:32:33;14.00;99.90
48264;DHT22;34086;51.076;13.722;2022-10-16T00:33:35;14.00;99.90
48264;DHT22;34086;51.076;13.722;2022-10-16T00:34:36;14.00;99.90
48264;DHT22;34086;51.076;13.722;2022-10-16T00:35:36;14.00;99.90
48264;DHT22;34086;51.076;13.722;2022-10-16T00:36:37;14.00;99.90
48264;DHT22;34086;51.076;13.722;2022-10-16T00:37:38;14.00;99.90
48264;DHT22;34086;51.076;13.722;2022-10-16T00:38:39;14.00;99.90
48264;DHT22;34086;51.076;13.722;2022-10-16T00:39:39;14.00;99.90
48264;DHT22;34086;51.076;13.722;2022-10-16T00:40:40;14.00;99.90
48264;DHT22;34086;51.076;13.722;2022-10-16T00:41:41;14.00;99.90
48264;DHT22;34086;51.076;13.722;2022-10-16T00:42:41;14.00;99.90
48264;DHT22;34086;51.076;13.722;2022-10-16T00:44:53;14.00;99.90
48264;DHT22;34086;51.076;13.722;2022-10-16T00:45:54;14.00;99.90
48264;DHT22;34086;51.076;13.722;2022-10-16T00:46:55;14.00;99.90
48264;DHT22;34086;51.076;13.722;2022-10-16T00:47:55;13.90;99.90
48264;DHT22;34086;51.076;13.722;2022-10-16T00:49:11;14.00;99.90
48264;DHT22;34086;51.076;13.722;2022-10-16T00:50:33;14.00;99.90
48264;DHT22;34086;51.076;13.722;2022-10-16T00:51:36;13.90;99.90
48264;DHT22;34086;51.076;13.722;2022-10-16T00:52:41;14.00;99.90
48264;DHT22;34086;51.076;13.722;2022-10-16T00:53:43;14.00;99.90
48264;DHT22;34086;51.076;13.722;2022-10-16T00:54:46;14.00;99.90
48264;DHT22;34086;51.076;13.722;2022-10-16T00:55:49;14.00;99.90
48264;DHT22;34086;51.076;13.722;2022-10-16T00:56:50;14.00;99.90
48264;DHT22;34086;51.076;13.722;2022-10-16T00:57:52;14.10;99.90
48264;DHT22;34086;51.076;13.722;2022-10-16T00:58:52;14.10;99.90
48264;DHT22;34086;51.076;13.722;2022-10-16T00:59:53;14.10;99.90
48264;DHT22;34086;51.076;13.722;2022-10-16T01:00:54;14.10;99.90
48264;DHT22;34086;51.076;13.722;2022-10-16T01:01:56;14.10;99.90
48264;DHT22;34086;51.076;13.722;2022-10-16T01:02:59;14.20;99.90
48264;DHT22;34086;51.076;13.722;2022-10-16T01:04:00;14.20;99.90
48264;DHT22;34086;51.076;13.722;2022-10-16T01:05:02;14.20;99.90
48264;DHT22;34086;51.076;13.722;2022-10-16T01:06:29;14.20;99.90
48264;DHT22;34086;51.076;13.722;2022-10-16T01:07:39;14.20;99.90
48264;DHT22;34086;51.076;13.722;2022-10-16T01:10:59;14.30;99.90
48264;DHT22;34086;51.076;13.722;2022-10-16T01:12:16;14.30;99.90
48264;DHT22;34086;51.076;13.722;2022-10-16T01:13:38;14.30;99.90
48264;DHT22;34086;51.076;13.722;2022-10-16T01:14:56;14.30;99.90
48264;DHT22;34086;51.076;13.722;2022-10-16T01:16:24;14.40;99.90
48264;DHT22;34086;51.076;13.722;2022-10-16T01:21:24;14.50;99.90
48264;DHT22;34086;51.076;13.722;2022-10-16T01:24:17;14.50;99.90
48264;DHT22;34086;51.076;13.722;2022-10-16T01:26:07;14.50;99.90
48264;DHT22;34086;51.076;13.722;2022-10-16T01:27:30;14.60;99.90
48264;DHT22;34086;51.076;13.722;2022-10-16T01:28:36;14.60;99.90
48264;DHT22;34086;51.076;13.722;2022-10-16T01:29:56;14.60;99.90
48264;DHT22;34086;51.076;13.722;2022-10-16T01:31:00;14.60;99.90
48264;DHT22;34086;51.076;13.722;2022-10-16T01:32:12;14.60;99.90
48264;DHT22;34086;51.076;13.722;2022-10-16T01:35:07;14.70;99.90
48264;DHT22;34086;51.076;13.722;2022-10-16T01:36:18;14.70;99.90
48264;DHT22;34086;51.076;13.722;2022-10-16T01:37:35;14.70;99.90
48264;DHT22;34086;51.076;13.722;2022-10-16T01:38:39;14.70;99.90
48264;DHT22;34086;51.076;13.722;2022-10-16T01:39:42;14.70;99.90
48264;DHT22;34086;51.076;13.722;2022-10-16T01:40:48;14.70;99.90
48264;DHT22;34086;51.076;13.722;2022-10-16T01:42:21;14.80;99.90
48264;DHT22;34086;51.076;13.722;2022-10-16T01:43:27;14.80;99.90
48264;DHT22;34086;51.076;13.722;2022-10-16T01:44:33;14.80;99.90
48264;DHT22;34086;51.076;13.722;2022-10-16T01:45:36;14.80;99.90
48264;DHT22;34086;51.076;13.722;2022-10-16T01:46:41;14.80;99.90
48264;DHT22;34086;51.076;13.722;2022-10-16T01:47:43;14.80;99.90
48264;DHT22;34086;51.076;13.722;2022-10-16T01:48:45;14.80;99.90
48264;DHT22;34086;51.076;13.722;2022-10-16T01:49:46;14.80;99.90
48264;DHT22;34086;51.076;13.722;2022-10-16T01:51:01;14.80;99.90
48264;DHT22;34086;51.076;13.722;2022-10-16T01:52:06;14.80;99.90
48264;DHT22;34086;51.076;13.722;2022-10-16T01:53:12;14.80;99.90
48264;DHT22;34086;51.076;13.722;2022-10-16T01:54:14;14.80;99.90
48264;DHT22;34086;51.076;13.722;2022-10-16T01:55:22;14.80;99.90
48264;DHT22;34086;51.076;13.722;2022-10-16T01:56:25;14.80;99.90
48264;DHT22;34086;51.076;13.722;2022-10-16T01:57:26;14.80;99.90
48264;DHT22;34086;51.076;13.722;2022-10-16T01:58:30;14.80;99.90
48264;DHT22;34086;51.076;13.722;2022-10-16T01:59:41;14.80;99.90
48264;DHT22;34086;51.076;13.722;2022-10-16T02:00:45;14.80;99.90
48264;DHT22;34086;51.076;13.722;2022-10-16T02:01:52;14.80;99.90
48264;DHT22;34086;51.076;13.722;2022-10-16T02:02:55;14.80;99.90
48264;DHT22;34086;51.076;13.722;2022-10-16T02:04:01;14.80;99.90
48264;DHT22;34086;51.076;13.722;2022-10-16T02:06:33;14.80;99.90
48264;DHT22;34086;51.076;13.722;2022-10-16T02:07:35;14.80;99.90
48264;DHT22;34086;51.076;13.722;2022-10-16T02:08:36;14.80;99.90
48264;DHT22;34086;51.076;13.722;2022-10-16T02:09:37;14.80;99.90
48264;DHT22;34086;51.076;13.722;2022-10-16T02:10:38;14.80;99.90
48264;DHT22;34086;51.076;13.722;2022-10-16T02:11:39;14.80;99.90
48264;DHT22;34086;51.076;13.722;2022-10-16T02:12:44;14.80;99.90
48264;DHT22;34086;51.076;13.722;2022-10-16T02:13:53;14.80;99.90
48264;DHT22;34086;51.076;13.722;2022-10-16T02:14:55;14.80;99.90
48264;DHT22;34086;51.076;13.722;2022-10-16T02:15:56;14.80;99.90
48264;DHT22;34086;51.076;13.722;2022-10-16T02:16:57;14.90;99.90
48264;DHT22;34086;51.076;13.722;2022-10-16T02:17:58;14.90;99.90
48264;DHT22;34086;51.076;13.722;2022-10-16T02:18:58;14.90;99.90
48264;DHT22;34086;51.076;13.722;2022-10-16T02:19:59;14.90;99.90
48264;DHT22;34086;51.076;13.722;2022-10-16T02:22:49;14.90;99.90
48264;DHT22;34086;51.076;13.722;2022-10-16T02:24:08;14.90;99.90
48264;DHT22;34086;51.076;13.722;2022-10-16T02:26:30;15.00;99.90
48264;DHT22;34086;51.076;13.722;2022-10-16T02:27:53;15.00;99.90
48264;DHT22;34086;51.076;13.722;2022-10-16T02:29:02;15.00;99.90
48264;DHT22;34086;51.076;13.722;2022-10-16T02:31:11;15.00;99.90
48264;DHT22;34086;51.076;13.722;2022-10-16T02:32:13;15.00;99.90
48264;DHT22;34086;51.076;13.722;2022-10-16T02:33:17;15.00;99.90
48264;DHT22;34086;51.076;13.722;2022-10-16T02:34:21;15.00;99.90
48264;DHT22;34086;51.076;13.722;2022-10-16T02:35:23;15.00;99.90
48264;DHT22;34086;51.076;13.722;2022-10-16T02:36:25;15.00;99.90
48264;DHT22;34086;51.076;13.722;2022-10-16T02:37:27;15.00;99.90
48264;DHT22;34086;51.076;13.722;2022-10-16T02:38:29;15.00;99.90
48264;DHT22;34086;51.076;13.722;2022-10-16T02:39:31;15.00;99.90
48264;DHT22;34086;51.076;13.722;2022-10-16T02:40:32;15.00;99.90
48264;DHT22;34086;51.076;13.722;2022-10-16T02:41:32;15.00;99.90
48264;DHT22;34086;51.076;13.722;2022-10-16T02:42:38;15.00;99.90
48264;DHT22;34086;51.076;13.722;2022-10-16T02:43:39;15.00;99.90
48264;DHT22;34086;51.076;13.722;2022-10-16T02:44:40;15.10;99.90
48264;DHT22;34086;51.076;13.722;2022-10-16T02:45:41;15.10;99.90
48264;DHT22;34086;51.076;13.722;2022-10-16T02:46:41;15.10;99.90
48264;DHT22;34086;51.076;13.722;2022-10-16T02:47:42;15.10;99.90
48264;DHT22;34086;51.076;13.722;2022-10-16T02:48:43;15.10;99.90
48264;DHT22;34086;51.076;13.722;2022-10-16T02:49:43;15.10;99.90
48264;DHT22;34086;51.076;13.722;2022-10-16T02:50:44;15.10;99.90
48264;DHT22;34086;51.076;13.722;2022-10-16T02:51:45;15.10;99.90
48264;DHT22;34086;51.076;13.722;2022-10-16T02:52:45;15.10;99.90
48264;DHT22;34086;51.076;13.722;2022-10-16T02:53:46;15.10;99.90
48264;DHT22;34086;51.076;13.722;2022-10-16T02:54:47;15.10;99.90
48264;DHT22;34086;51.076;13.722;2022-10-16T02:55:48;15.10;99.90
48264;DHT22;34086;51.076;13.722;2022-10-16T02:56:49;15.10;99.90
48264;DHT22;34086;51.076;13.722;2022-10-16T02:57:49;15.10;99.90
48264;DHT22;34086;51.076;13.722;2022-10-16T02:58:50;15.10;99.90
48264;DHT22;34086;51.076;13.722;2022-10-16T02:59:50;15.10;99.90
48264;DHT22;34086;51.076;13.722;2022-10-16T03:00:51;15.10;99.90
48264;DHT22;34086;51.076;13.722;2022-10-16T03:01:52;15.10;99.90
48264;DHT22;34086;51.076;13.722;2022-10-16T03:02:52;15.10;99.90
48264;DHT22;34086;51.076;13.722;2022-10-16T03:03:53;15.10;99.90
48264;DHT22;34086;51.076;13.722;2022-10-16T03:04:54;15.10;99.90
48264;DHT22;34086;51.076;13.722;2022-10-16T03:05:54;15.10;99.90
48264;DHT22;34086;51.076;13.722;2022-10-16T03:06:55;15.10;99.90
48264;DHT22;34086;51.076;13.722;2022-10-16T03:07:56;15.10;99.90
48264;DHT22;34086;51.076;13.722;2022-10-16T03:08:56;15.10;99.90
48264;DHT22;34086;51.076;13.722;2022-10-16T03:09:57;15.10;99.90
48264;DHT22;34086;51.076;13.722;2022-10-16T03:11:00;15.10;99.90
48264;DHT22;34086;51.076;13.722;2022-10-16T03:12:03;15.10;99.90
48264;DHT22;34086;51.076;13.722;2022-10-16T03:13:03;15.10;99.90
48264;DHT22;34086;51.076;13.722;2022-10-16T03:14:04;15.10;99.90
48264;DHT22;34086;51.076;13.722;2022-10-16T03:15:05;15.10;99.90
48264;DHT22;34086;51.076;13.722;2022-10-16T03:16:07;15.10;99.90
48264;DHT22;34086;51.076;13.722;2022-10-16T03:17:08;15.00;99.90
48264;DHT22;34086;51.076;13.722;2022-10-16T03:18:08;15.00;99.90
48264;DHT22;34086;51.076;13.722;2022-10-16T03:19:09;15.00;99.90
48264;DHT22;34086;51.076;13.722;2022-10-16T03:20:10;15.00;99.90
48264;DHT22;34086;51.076;13.722;2022-10-16T03:21:10;14.90;99.90
48264;DHT22;34086;51.076;13.722;2022-10-16T03:22:11;14.90;99.90
48264;DHT22;34086;51.076;13.722;2022-10-16T03:23:12;14.90;99.90
48264;DHT22;34086;51.076;13.722;2022-10-16T03:24:12;14.90;99.90
48264;DHT22;34086;51.076;13.722;2022-10-16T03:25:13;14.90;99.90
48264;DHT22;34086;51.076;13.722;2022-10-16T03:26:14;14.80;99.90
48264;DHT22;34086;51.076;13.722;2022-10-16T03:27:14;14.80;99.90
48264;DHT22;34086;51.076;13.722;2022-10-16T03:28:15;14.80;99.90
48264;DHT22;34086;51.076;13.722;2022-10-16T03:29:16;14.80;99.90
48264;DHT22;34086;51.076;13.722;2022-10-16T03:30:16;14.80;99.90
48264;DHT22;34086;51.076;13.722;2022-10-16T03:31:17;14.70;99.90
48264;DHT22;34086;51.076;13.722;2022-10-16T03:32:17;14.70;99.90
48264;DHT22;34086;51.076;13.722;2022-10-16T03:33:18;14.70;99.90
48264;DHT22;34086;51.076;13.722;2022-10-16T03:34:19;14.70;99.90
48264;DHT22;34086;51.076;13.722;2022-10-16T03:35:21;14.70;99.90
48264;DHT22;34086;51.076;13.722;2022-10-16T03:36:22;14.70;99.90
48264;DHT22;34086;51.076;13.722;2022-10-16T03:37:23;14.70;99.90
48264;DHT22;34086;51.076;13.722;2022-10-16T03:38:24;14.60;99.90
48264;DHT22;34086;51.076;13.722;2022-10-16T03:39:24;14.60;99.90
48264;DHT22;34086;51.076;13.722;2022-10-16T03:40:25;14.60;99.90
48264;DHT22;34086;51.076;13.722;2022-10-16T03:41:26;14.60;99.90
48264;DHT22;34086;51.076;13.722;2022-10-16T03:42:27;14.60;99.90
48264;DHT22;34086;51.076;13.722;2022-10-16T03:43:27;14.50;99.90
48264;DHT22;34086;51.076;13.722;2022-10-16T03:44:28;14.50;99.90
48264;DHT22;34086;51.076;13.722;2022-10-16T03:45:28;14.50;99.90
48264;DHT22;34086;51.076;13.722;2022-10-16T03:46:29;14.50;99.90
48264;DHT22;34086;51.076;13.722;2022-10-16T03:47:30;14.40;99.90
48264;DHT22;34086;51.076;13.722;2022-10-16T03:48:33;14.50;99.90
48264;DHT22;34086;51.076;13.722;2022-10-16T03:49:34;14.40;99.90
48264;DHT22;34086;51.076;13.722;2022-10-16T03:50:34;14.40;99.90
48264;DHT22;34086;51.076;13.722;2022-10-16T03:51:35;14.40;99.90
48264;DHT22;34086;51.076;13.722;2022-10-16T03:52:36;14.40;99.90
48264;DHT22;34086;51.076;13.722;2022-10-16T03:53:36;14.30;99.90
48264;DHT22;34086;51.076;13.722;2022-10-16T03:54:37;14.40;99.90
48264;DHT22;34086;51.076;13.722;2022-10-16T03:55:37;14.30;99.90
48264;DHT22;34086;51.076;13.722;2022-10-16T03:56:38;14.30;99.90
48264;DHT22;34086;51.076;13.722;2022-10-16T03:57:39;14.30;99.90
48264;DHT22;34086;51.076;13.722;2022-10-16T03:58:39;14.30;99.90
48264;DHT22;34086;51.076;13.722;2022-10-16T03:59:40;14.30;99.90
48264;DHT22;34086;51.076;13.722;2022-10-16T04:00:44;14.30;99.90
48264;DHT22;34086;51.076;13.722;2022-10-16T04:01:45;14.30;99.90
48264;DHT22;34086;51.076;13.722;2022-10-16T04:02:46;14.30;99.90
48264;DHT22;34086;51.076;13.722;2022-10-16T04:03:46;14.30;99.90
48264;DHT22;34086;51.076;13.722;2022-10-16T04:04:47;14.30;99.90
48264;DHT22;34086;51.076;13.722;2022-10-16T04:05:48;14.30;99.90
48264;DHT22;34086;51.076;13.722;2022-10-16T04:06:49;14.30;99.90
48264;DHT22;34086;51.076;13.722;2022-10-16T04:07:49;14.30;99.90
48264;DHT22;34086;51.076;13.722;2022-10-16T04:08:50;14.30;99.90
48264;DHT22;34086;51.076;13.722;2022-10-16T04:09:51;14.30;99.90
48264;DHT22;34086;51.076;13.722;2022-10-16T04:10:52;14.40;99.90
48264;DHT22;34086;51.076;13.722;2022-10-16T04:11:53;14.30;99.90
48264;DHT22;34086;51.076;13.722;2022-10-16T04:12:53;14.40;99.90
48264;DHT22;34086;51.076;13.722;2022-10-16T04:13:57;14.40;99.90
48264;DHT22;34086;51.076;13.722;2022-10-16T04:14:58;14.30;99.90
48264;DHT22;34086;51.076;13.722;2022-10-16T04:15:58;14.40;99.90
48264;DHT22;34086;51.076;13.722;2022-10-16T04:16:59;14.40;99.90
48264;DHT22;34086;51.076;13.722;2022-10-16T04:18:00;14.40;99.90
48264;DHT22;34086;51.076;13.722;2022-10-16T04:19:01;14.40;99.90
48264;DHT22;34086;51.076;13.722;2022-10-16T04:20:02;14.40;99.90
48264;DHT22;34086;51.076;13.722;2022-10-16T04:21:04;14.40;99.90
48264;DHT22;34086;51.076;13.722;2022-10-16T04:22:05;14.40;99.90
48264;DHT22;34086;51.076;13.722;2022-10-16T04:23:05;14.40;99.90
48264;DHT22;34086;51.076;13.722;2022-10-16T04:24:06;14.50;99.90
48264;DHT22;34086;51.076;13.722;2022-10-16T04:25:07;14.50;99.90
48264;DHT22;34086;51.076;13.722;2022-10-16T04:26:08;14.40;99.90
48264;DHT22;34086;51.076;13.722;2022-10-16T04:27:09;14.50;99.90
48264;DHT22;34086;51.076;13.722;2022-10-16T04:28:09;14.50;99.90
48264;DHT22;34086;51.076;13.722;2022-10-16T04:29:10;14.50;99.90
48264;DHT22;34086;51.076;13.722;2022-10-16T04:30:11;14.50;99.90
48264;DHT22;34086;51.076;13.722;2022-10-16T04:31:11;14.50;99.90
48264;DHT22;34086;51.076;13.722;2022-10-16T04:32:12;14.50;99.90
48264;DHT22;34086;51.076;13.722;2022-10-16T04:33:13;14.50;99.90
48264;DHT22;34086;51.076;13.722;2022-10-16T04:34:13;14.50;99.90
48264;DHT22;34086;51.076;13.722;2022-10-16T04:35:14;14.60;99.90
48264;DHT22;34086;51.076;13.722;2022-10-16T04:36:15;14.60;99.90
48264;DHT22;34086;51.076;13.722;2022-10-16T04:37:15;14.60;99.90
48264;DHT22;34086;51.076;13.722;2022-10-16T04:38:16;14.60;99.90
48264;DHT22;34086;51.076;13.722;2022-10-16T04:39:17;14.60;99.90
48264;DHT22;34086;51.076;13.722;2022-10-16T04:40:18;14.60;99.90
48264;DHT22;34086;51.076;13.722;2022-10-16T04:41:18;14.60;99.90
48264;DHT22;34086;51.076;13.722;2022-10-16T04:42:20;14.60;99.90
48264;DHT22;34086;51.076;13.722;2022-10-16T04:43:21;14.60;99.90
48264;DHT22;34086;51.076;13.722;2022-10-16T04:44:22;14.60;99.90
48264;DHT22;34086;51.076;13.722;2022-10-16T04:45:22;14.60;99.90
48264;DHT22;34086;51.076;13.722;2022-10-16T04:46:23;14.60;99.90
48264;DHT22;34086;51.076;13.722;2022-10-16T04:47:23;14.50;99.90
48264;DHT22;34086;51.076;13.722;2022-10-16T04:48:24;14.50;99.90
48264;DHT22;34086;51.076;13.722;2022-10-16T04:49:25;14.50;99.90
48264;DHT22;34086;51.076;13.722;2022-10-16T04:50:26;14.50;99.90
48264;DHT22;34086;51.076;13.722;2022-10-16T04:51:39;14.50;99.90
48264;DHT22;34086;51.076;13.722;2022-10-16T04:52:39;14.50;99.90
48264;DHT22;34086;51.076;13.722;2022-10-16T04:53:40;14.50;99.90
48264;DHT22;34086;51.076;13.722;2022-10-16T04:54:41;14.50;99.90
48264;DHT22;34086;51.076;13.722;2022-10-16T04:55:42;14.50;99.90
48264;DHT22;34086;51.076;13.722;2022-10-16T04:56:42;14.50;99.90
48264;DHT22;34086;51.076;13.722;2022-10-16T04:57:47;14.50;99.90
48264;DHT22;34086;51.076;13.722;2022-10-16T04:58:47;14.50;99.90
48264;DHT22;34086;51.076;13.722;2022-10-16T04:59:48;14.50;99.90
48264;DHT22;34086;51.076;13.722;2022-10-16T05:00:49;14.50;99.90
48264;DHT22;34086;51.076;13.722;2022-10-16T05:01:49;14.50;99.90
48264;DHT22;34086;51.076;13.722;2022-10-16T05:02:50;14.50;99.90
48264;DHT22;34086;51.076;13.722;2022-10-16T05:03:51;14.60;99.90
48264;DHT22;34086;51.076;13.722;2022-10-16T05:04:52;14.50;99.90
48264;DHT22;34086;51.076;13.722;2022-10-16T05:05:53;14.60;99.90
48264;DHT22;34086;51.076;13.722;2022-10-16T05:06:53;14.60;99.90
48264;DHT22;34086;51.076;13.722;2022-10-16T05:07:54;14.60;99.90
48264;DHT22;34086;51.076;13.722;2022-10-16T05:08:54;14.60;99.90
48264;DHT22;34086;51.076;13.722;2022-10-16T05:09:55;14.60;99.90
48264;DHT22;34086;51.076;13.722;2022-10-16T05:10:56;14.60;99.90
48264;DHT22;34086;51.076;13.722;2022-10-16T05:11:56;14.70;99.90
48264;DHT22;34086;51.076;13.722;2022-10-16T05:12:57;14.70;99.90
48264;DHT22;34086;51.076;13.722;2022-10-16T05:13:58;14.70;99.90
48264;DHT22;34086;51.076;13.722;2022-10-16T05:14:58;14.70;99.90
48264;DHT22;34086;51.076;13.722;2022-10-16T05:15:59;14.70;99.90
48264;DHT22;34086;51.076;13.722;2022-10-16T05:17:00;14.70;99.90
48264;DHT22;34086;51.076;13.722;2022-10-16T05:18:01;14.70;99.90
48264;DHT22;34086;51.076;13.722;2022-10-16T05:19:02;14.70;99.90
48264;DHT22;34086;51.076;13.722;2022-10-16T05:20:03;14.70;99.90
48264;DHT22;34086;51.076;13.722;2022-10-16T05:21:03;14.60;99.90
48264;DHT22;34086;51.076;13.722;2022-10-16T05:22:04;14.60;99.90
48264;DHT22;34086;51.076;13.722;2022-10-16T05:23:05;14.60;99.90
48264;DHT22;34086;51.076;13.722;2022-10-16T05:24:06;14.60;99.90
48264;DHT22;34086;51.076;13.722;2022-10-16T05:25:06;14.60;99.90
48264;DHT22;34086;51.076;13.722;2022-10-16T05:26:07;14.60;99.90
48264;DHT22;34086;51.076;13.722;2022-10-16T05:27:08;14.60;99.90
48264;DHT22;34086;51.076;13.722;2022-10-16T05:28:10;14.50;99.90
48264;DHT22;34086;51.076;13.722;2022-10-16T05:29:10;14.50;99.90
48264;DHT22;34086;51.076;13.722;2022-10-16T05:30:11;14.50;99.90
48264;DHT22;34086;51.076;13.722;2022-10-16T05:31:11;14.50;99.90
48264;DHT22;34086;51.076;13.722;2022-10-16T05:32:16;14.50;99.90
48264;DHT22;34086;51.076;13.722;2022-10-16T05:33:16;14.50;99.90
48264;DHT22;34086;51.076;13.722;2022-10-16T05:34:17;14.50;99.90
48264;DHT22;34086;51.076;13.722;2022-10-16T05:35:19;14.50;99.90
48264;DHT22;34086;51.076;13.722;2022-10-16T05:36:19;14.50;99.90
48264;DHT22;34086;51.076;13.722;2022-10-16T05:37:20;14.50;99.90
48264;DHT22;34086;51.076;13.722;2022-10-16T05:38:21;14.50;99.90
48264;DHT22;34086;51.076;13.722;2022-10-16T05:39:21;14.50;99.90
48264;DHT22;34086;51.076;13.722;2022-10-16T05:40:23;14.50;99.90
48264;DHT22;34086;51.076;13.722;2022-10-16T05:41:24;14.50;99.90
48264;DHT22;34086;51.076;13.722;2022-10-16T05:42:26;14.40;99.90
48264;DHT22;34086;51.076;13.722;2022-10-16T05:43:28;14.40;99.90
48264;DHT22;34086;51.076;13.722;2022-10-16T05:44:29;14.50;99.90
48264;DHT22;34086;51.076;13.722;2022-10-16T05:45:30;14.50;99.90
48264;DHT22;34086;51.076;13.722;2022-10-16T05:46:31;14.50;99.90
48264;DHT22;34086;51.076;13.722;2022-10-16T05:47:32;14.50;99.90
48264;DHT22;34086;51.076;13.722;2022-10-16T05:48:33;14.40;99.90
48264;DHT22;34086;51.076;13.722;2022-10-16T05:49:36;14.40;99.90
48264;DHT22;34086;51.076;13.722;2022-10-16T05:50:40;14.50;99.90
48264;DHT22;34086;51.076;13.722;2022-10-16T05:51:40;14.50;99.90
48264;DHT22;34086;51.076;13.722;2022-10-16T05:52:42;14.40;99.90
48264;DHT22;34086;51.076;13.722;2022-10-16T05:53:42;14.40;99.90
48264;DHT22;34086;51.076;13.722;2022-10-16T05:54:43;14.40;99.90
48264;DHT22;34086;51.076;13.722;2022-10-16T05:55:51;14.50;99.90
48264;DHT22;34086;51.076;13.722;2022-10-16T05:56:52;14.50;99.90
48264;DHT22;34086;51.076;13.722;2022-10-16T05:57:54;14.50;99.90
48264;DHT22;34086;51.076;13.722;2022-10-16T05:58:55;14.50;99.90
48264;DHT22;34086;51.076;13.722;2022-10-16T05:59:56;14.50;99.90
48264;DHT22;34086;51.076;13.722;2022-10-16T06:00:59;14.50;99.90
48264;DHT22;34086;51.076;13.722;2022-10-16T06:02:00;14.50;99.90
48264;DHT22;34086;51.076;13.722;2022-10-16T06:03:01;14.60;99.90
48264;DHT22;34086;51.076;13.722;2022-10-16T06:04:02;14.60;99.90
48264;DHT22;34086;51.076;13.722;2022-10-16T06:05:03;14.60;99.90
48264;DHT22;34086;51.076;13.722;2022-10-16T06:06:12;14.60;99.90
48264;DHT22;34086;51.076;13.722;2022-10-16T06:07:13;14.70;99.90
48264;DHT22;34086;51.076;13.722;2022-10-16T06:08:14;14.70;99.90
48264;DHT22;34086;51.076;13.722;2022-10-16T06:09:14;14.70;99.90
48264;DHT22;34086;51.076;13.722;2022-10-16T06:10:15;14.80;99.90
48264;DHT22;34086;51.076;13.722;2022-10-16T06:11:19;14.70;99.90
48264;DHT22;34086;51.076;13.722;2022-10-16T06:12:20;14.80;99.90
48264;DHT22;34086;51.076;13.722;2022-10-16T06:13:21;14.80;99.90
48264;DHT22;34086;51.076;13.722;2022-10-16T06:14:21;14.80;99.90
48264;DHT22;34086;51.076;13.722;2022-10-16T06:15:22;14.80;99.90
48264;DHT22;34086;51.076;13.722;2022-10-16T06:16:24;14.80;99.90
48264;DHT22;34086;51.076;13.722;2022-10-16T06:17:25;14.80;99.90
48264;DHT22;34086;51.076;13.722;2022-10-16T06:18:27;14.80;99.90
48264;DHT22;34086;51.076;13.722;2022-10-16T06:19:27;14.80;99.90
48264;DHT22;34086;51.076;13.722;2022-10-16T06:20:28;14.80;99.90
48264;DHT22;34086;51.076;13.722;2022-10-16T06:21:29;14.80;99.90
48264;DHT22;34086;51.076;13.722;2022-10-16T06:22:30;14.80;99.90
48264;DHT22;34086;51.076;13.722;2022-10-16T06:23:31;14.80;99.90
48264;DHT22;34086;51.076;13.722;2022-10-16T06:24:31;14.90;99.90
48264;DHT22;34086;51.076;13.722;2022-10-16T06:25:32;14.90;99.90
48264;DHT22;34086;51.076;13.722;2022-10-16T06:26:33;14.90;99.90
48264;DHT22;34086;51.076;13.722;2022-10-16T06:27:33;15.00;99.90
48264;DHT22;34086;51.076;13.722;2022-10-16T06:28:34;15.00;99.90
48264;DHT22;34086;51.076;13.722;2022-10-16T06:29:35;15.00;99.90
48264;DHT22;34086;51.076;13.722;2022-10-16T06:30:35;15.10;99.90
48264;DHT22;34086;51.076;13.722;2022-10-16T06:31:36;15.10;99.90
48264;DHT22;34086;51.076;13.722;2022-10-16T06:32:37;15.10;99.90
48264;DHT22;34086;51.076;13.722;2022-10-16T06:33:38;15.10;99.90
48264;DHT22;34086;51.076;13.722;2022-10-16T06:34:39;15.20;99.90
48264;DHT22;34086;51.076;13.722;2022-10-16T06:35:41;15.20;99.90
48264;DHT22;34086;51.076;13.722;2022-10-16T06:36:42;15.30;99.90
48264;DHT22;34086;51.076;13.722;2022-10-16T06:37:43;15.30;99.90
48264;DHT22;34086;51.076;13.722;2022-10-16T06:38:44;15.30;99.90
48264;DHT22;34086;51.076;13.722;2022-10-16T06:39:45;15.30;99.90
48264;DHT22;34086;51.076;13.722;2022-10-16T06:40:45;15.30;99.90
48264;DHT22;34086;51.076;13.722;2022-10-16T06:41:46;15.30;99.90
48264;DHT22;34086;51.076;13.722;2022-10-16T06:42:50;15.40;99.90
48264;DHT22;34086;51.076;13.722;2022-10-16T06:43:52;15.40;99.90
48264;DHT22;34086;51.076;13.722;2022-10-16T06:44:52;15.50;99.90